FZFH weather

Mokaria-Yamoleka Airport
Mokaria-Yamoleka, Orientale Province, Congo (Kinshasa)

Public forecast

Using degrees Celsius for public forecast. Weather courtesy of forecast.io.

Closest aviation weather report (METAR) to Mokaria-Yamoleka Airport

Report is more than 6 hours old.

Closest report is Bangoka International Airport, 157.7 nm (292.0 km) SE. Retrieved 2020/02/16 18:00 UTC (6 hours ago):

FZIC 161800Z 00000KT 6000 NSC 28/23 Q1008 NOSIG

Closest aviation forecast (TAF) to Mokaria-Yamoleka Airport

Forecast is more than 6 hours old.

Closest forecast is Bangoka International Airport, 157.7 nm (292.0 km) SE. Retrieved 2020/02/16 18:00 UTC (6 hours ago):

TAF FZIC 161700Z 1618/1724 00000KT 3000 BR NSC FM170600 18006KT 6000 NSW SCT010 BECMG 1709/1711 28010KT FEW022 FEW034CB TEMPO 1712/1716 TS BECMG 1716/1718 00000KT NSC